createdAt,value
2018-11-29T00:00:13.819Z,1009.87
2018-11-29T00:01:13.875Z,1009.83
2018-11-29T00:02:13.932Z,1009.86
2018-11-29T00:03:13.987Z,1009.80
2018-11-29T00:04:14.045Z,1009.77
2018-11-29T00:05:14.098Z,1009.78
2018-11-29T00:06:14.155Z,1009.74
2018-11-29T00:07:14.211Z,1009.75
2018-11-29T00:08:14.270Z,1009.74
2018-11-29T00:09:14.325Z,1009.73
2018-11-29T00:10:14.379Z,1009.74
2018-11-29T00:11:14.442Z,1009.72
2018-11-29T00:12:14.491Z,1009.66
2018-11-29T00:13:14.547Z,1009.69
2018-11-29T00:14:14.603Z,1009.66
2018-11-29T00:15:14.660Z,1009.64
2018-11-29T00:16:14.716Z,1009.58
2018-11-29T00:17:14.771Z,1009.58
2018-11-29T00:18:14.827Z,1009.60
2018-11-29T00:19:14.884Z,1009.62
2018-11-29T00:20:14.940Z,1009.64
2018-11-29T00:21:14.998Z,1009.73
2018-11-29T00:22:15.053Z,1009.78
2018-11-29T00:23:15.112Z,1009.80
2018-11-29T00:24:15.164Z,1009.75
2018-11-29T00:25:15.224Z,1009.75
2018-11-29T00:26:15.277Z,1009.77
2018-11-29T00:27:15.333Z,1009.76
2018-11-29T00:28:15.389Z,1009.74
2018-11-29T00:29:15.444Z,1009.70
2018-11-29T00:30:15.504Z,1009.65
2018-11-29T00:31:15.561Z,1009.70
2018-11-29T00:32:15.615Z,1009.67
2018-11-29T00:33:15.671Z,1009.73
2018-11-29T00:34:15.726Z,1009.80
2018-11-29T00:35:15.782Z,1009.77
2018-11-29T00:36:15.843Z,1009.77
2018-11-29T00:37:15.894Z,1009.74
2018-11-29T00:38:15.950Z,1009.72
2018-11-29T00:39:16.006Z,1009.72
2018-11-29T00:40:16.062Z,1009.70
2018-11-29T00:41:16.116Z,1009.70
2018-11-29T00:42:16.173Z,1009.74
2018-11-29T00:43:16.229Z,1009.72
2018-11-29T00:44:16.286Z,1009.74
2018-11-29T00:45:16.348Z,1009.71
2018-11-29T00:46:16.397Z,1009.75
2018-11-29T00:47:16.453Z,1009.79
2018-11-29T00:48:16.510Z,1009.76
2018-11-29T00:49:16.564Z,1009.75
2018-11-29T00:50:16.621Z,1009.73
2018-11-29T00:51:16.676Z,1009.72
2018-11-29T00:52:16.737Z,1009.73
2018-11-29T00:53:16.787Z,1009.77
2018-11-29T00:54:16.844Z,1009.76
2018-11-29T00:55:16.900Z,1009.75
2018-11-29T00:56:16.957Z,1009.69
2018-11-29T00:57:17.011Z,1009.77
2018-11-29T00:58:17.068Z,1009.73
2018-11-29T00:59:17.124Z,1009.68
2018-11-29T01:00:17.181Z,1009.74
2018-11-29T01:01:17.235Z,1009.71
2018-11-29T01:02:17.291Z,1009.66
2018-11-29T01:03:17.353Z,1009.66
2018-11-29T01:04:17.404Z,1009.66
2018-11-29T01:05:20.315Z,1009.65
2018-11-29T01:06:17.514Z,1009.66
2018-11-29T01:07:17.576Z,1009.64
2018-11-29T01:08:17.628Z,1009.68
2018-11-29T01:09:18.823Z,1009.70
2018-11-29T01:10:17.739Z,1009.72
2018-11-29T01:11:20.752Z,1009.75
2018-11-29T01:12:17.851Z,1009.75
2018-11-29T01:13:17.908Z,1009.74
2018-11-29T01:14:17.964Z,1009.70
2018-11-29T01:15:18.035Z,1009.68
2018-11-29T01:16:18.075Z,1009.66
2018-11-29T01:17:18.131Z,1009.64
2018-11-29T01:18:18.188Z,1009.61
2018-11-29T01:19:18.245Z,1009.59
2018-11-29T01:20:18.301Z,1009.60
2018-11-29T01:21:18.354Z,1009.61
2018-11-29T01:22:18.412Z,1009.63
2018-11-29T01:23:18.467Z,1009.61
2018-11-29T01:24:18.524Z,1009.58
2018-11-29T01:25:18.581Z,1009.60
2018-11-29T01:26:18.640Z,1009.56
2018-11-29T01:27:18.694Z,1009.57
2018-11-29T01:28:18.749Z,1009.62
2018-11-29T01:29:18.803Z,1009.62
2018-11-29T01:30:18.861Z,1009.63
2018-11-29T01:31:18.916Z,1009.64
2018-11-29T01:32:18.975Z,1009.63
2018-11-29T01:33:19.028Z,1009.65
2018-11-29T01:34:19.084Z,1009.65
2018-11-29T01:35:19.142Z,1009.65
2018-11-29T01:36:19.198Z,1009.64
2018-11-29T01:37:19.254Z,1009.68
2018-11-29T01:38:19.309Z,1009.65
2018-11-29T01:39:19.366Z,1009.65
2018-11-29T01:40:19.422Z,1009.62
2018-11-29T01:41:19.477Z,1009.68
2018-11-29T01:42:19.535Z,1009.60
2018-11-29T01:43:19.589Z,1009.58
2018-11-29T01:44:19.647Z,1009.55
2018-11-29T01:45:19.704Z,1009.51
2018-11-29T01:46:19.759Z,1009.54
2018-11-29T01:47:19.815Z,1009.56
2018-11-29T01:48:19.870Z,1009.57
2018-11-29T01:49:19.925Z,1009.55
2018-11-29T01:50:19.984Z,1009.59
2018-11-29T01:51:20.038Z,1009.58
2018-11-29T01:52:20.094Z,1009.59
2018-11-29T01:53:20.149Z,1009.57
2018-11-29T01:54:20.210Z,1009.58
2018-11-29T01:55:20.262Z,1009.55
2018-11-29T01:56:20.318Z,1009.51
2018-11-29T01:57:20.373Z,1009.53
2018-11-29T01:58:20.430Z,1009.48
2018-11-29T01:59:20.487Z,1009.44
2018-11-29T02:00:20.547Z,1009.45
2018-11-29T02:01:20.599Z,1009.43
2018-11-29T02:02:20.654Z,1009.42
2018-11-29T02:03:20.711Z,1009.41
2018-11-29T02:04:20.768Z,1009.41
2018-11-29T02:05:20.822Z,1009.38
2018-11-29T02:06:20.879Z,1009.37
2018-11-29T02:07:20.934Z,1009.36
2018-11-29T02:08:20.992Z,1009.36
2018-11-29T02:09:21.049Z,1009.37
2018-11-29T02:10:21.102Z,1009.38
2018-11-29T02:11:21.164Z,1009.37
2018-11-29T02:12:21.218Z,1009.35
2018-11-29T02:13:21.271Z,1009.37
2018-11-29T02:14:21.326Z,1009.32
2018-11-29T02:15:21.385Z,1009.30
2018-11-29T02:16:21.438Z,1009.27
2018-11-29T02:17:21.494Z,1009.27
2018-11-29T02:18:21.551Z,1009.30
2018-11-29T02:19:21.606Z,1009.24
2018-11-29T02:20:21.669Z,1009.24
2018-11-29T02:21:21.752Z,1009.24
2018-11-29T02:22:21.776Z,1009.28
2018-11-29T02:23:21.831Z,1009.23
2018-11-29T02:24:21.887Z,1009.21
2018-11-29T02:25:21.952Z,1009.21
2018-11-29T02:26:22.000Z,1009.22
2018-11-29T02:27:22.056Z,1009.23
2018-11-29T02:28:22.114Z,1009.18
2018-11-29T02:29:22.166Z,1009.17
2018-11-29T02:30:22.225Z,1009.15
2018-11-29T02:31:22.280Z,1009.16
2018-11-29T02:32:22.341Z,1009.14
2018-11-29T02:33:22.390Z,1009.12
2018-11-29T02:34:22.447Z,1009.10
2018-11-29T02:35:22.507Z,1009.05
2018-11-29T02:36:22.561Z,1009.04
2018-11-29T02:37:23.225Z,1009.01
2018-11-29T02:38:23.355Z,1009.01
2018-11-29T02:39:23.303Z,1008.97
2018-11-29T02:40:22.890Z,1008.96
2018-11-29T02:41:23.529Z,1008.95
2018-11-29T02:42:23.469Z,1008.97
2018-11-29T02:43:23.525Z,1008.96
2018-11-29T02:44:23.011Z,1008.96
2018-11-29T02:45:23.064Z,1009.02
2018-11-29T02:46:23.120Z,1009.01
2018-11-29T02:47:23.178Z,1009.03
2018-11-29T02:48:23.254Z,1009.00
2018-11-29T02:49:23.308Z,1009.04
2018-11-29T02:50:23.365Z,1009.01
2018-11-29T02:51:23.414Z,1009.02
2018-11-29T02:52:23.459Z,1009.03
2018-11-29T02:53:23.539Z,1009.04
2018-11-29T02:54:23.608Z,1009.00
2018-11-29T02:55:23.650Z,1008.97
2018-11-29T02:56:23.699Z,1008.96
2018-11-29T02:57:23.826Z,1008.92
2018-11-29T02:58:23.881Z,1008.94
2018-11-29T02:59:23.853Z,1008.91
2018-11-29T03:00:23.912Z,1008.91
2018-11-29T03:01:23.964Z,1008.92
2018-11-29T03:02:24.024Z,1008.89
2018-11-29T03:03:24.078Z,1008.93
2018-11-29T03:04:24.135Z,1008.96
2018-11-29T03:05:24.191Z,1008.95
2018-11-29T03:06:24.247Z,1008.95
2018-11-29T03:07:24.303Z,1008.96
2018-11-29T03:08:24.361Z,1008.95
2018-11-29T03:09:24.416Z,1008.95
2018-11-29T03:10:24.472Z,1008.99
2018-11-29T03:11:24.530Z,1008.98
2018-11-29T03:12:24.587Z,1008.98
2018-11-29T03:13:24.641Z,1008.96
2018-11-29T03:14:24.698Z,1008.93
2018-11-29T03:15:24.754Z,1008.92
2018-11-29T03:16:24.811Z,1008.93
2018-11-29T03:17:24.867Z,1008.93
2018-11-29T03:18:24.924Z,1008.93
2018-11-29T03:19:24.979Z,1008.91
2018-11-29T03:20:25.037Z,1008.93
2018-11-29T03:21:25.095Z,1008.94
2018-11-29T03:22:25.149Z,1008.93
2018-11-29T03:23:25.205Z,1008.98
2018-11-29T03:24:25.263Z,1008.97
2018-11-29T03:25:25.318Z,1008.98
2018-11-29T03:26:25.373Z,1008.93
2018-11-29T03:27:25.431Z,1008.92
2018-11-29T03:28:25.487Z,1008.86
2018-11-29T03:29:25.543Z,1008.84
2018-11-29T03:30:25.599Z,1008.89
2018-11-29T03:31:25.656Z,1008.86
2018-11-29T03:32:25.717Z,1008.90
2018-11-29T03:33:25.796Z,1008.92
2018-11-29T03:34:25.827Z,1008.93
2018-11-29T03:35:25.882Z,1008.96
2018-11-29T03:36:25.938Z,1008.93
2018-11-29T03:37:25.994Z,1008.94
2018-11-29T03:38:26.051Z,1008.95
2018-11-29T03:39:26.117Z,1008.90
2018-11-29T03:40:26.166Z,1008.90
2018-11-29T03:41:26.222Z,1008.85
2018-11-29T03:42:26.277Z,1008.83
2018-11-29T03:43:26.377Z,1008.77
2018-11-29T03:44:26.406Z,1008.79
2018-11-29T03:45:26.445Z,1008.74
2018-11-29T03:46:26.503Z,1008.72
2018-11-29T03:47:26.558Z,1008.71
2018-11-29T03:48:26.614Z,1008.71
2018-11-29T03:49:26.688Z,1008.68
2018-11-29T03:50:26.730Z,1008.70
2018-11-29T03:51:26.787Z,1008.71
2018-11-29T03:52:26.841Z,1008.71
2018-11-29T03:53:26.896Z,1008.72
2018-11-29T03:54:26.998Z,1008.73
2018-11-29T03:55:27.011Z,1008.74
2018-11-29T03:56:27.066Z,1008.73
2018-11-29T03:57:27.123Z,1008.75
2018-11-29T03:58:27.183Z,1008.73
2018-11-29T03:59:27.242Z,1008.77
2018-11-29T04:00:27.292Z,1008.78
2018-11-29T04:01:27.347Z,1008.77
2018-11-29T04:02:27.405Z,1008.72
2018-11-29T04:03:27.463Z,1008.70
2018-11-29T04:04:27.519Z,1008.65
2018-11-29T04:05:27.574Z,1008.66
2018-11-29T04:06:27.634Z,1008.65
2018-11-29T04:07:27.688Z,1008.63
2018-11-29T04:08:27.744Z,1008.65
2018-11-29T04:09:27.800Z,1008.64
2018-11-29T04:10:27.857Z,1008.62
2018-11-29T04:11:27.914Z,1008.63
2018-11-29T04:12:27.970Z,1008.65
2018-11-29T04:13:28.027Z,1008.61
2018-11-29T04:14:28.085Z,1008.62
2018-11-29T04:15:28.141Z,1008.59
2018-11-29T04:16:28.198Z,1008.62
2018-11-29T04:17:28.255Z,1008.54
2018-11-29T04:18:28.310Z,1008.56
2018-11-29T04:19:28.370Z,1008.54
2018-11-29T04:20:28.423Z,1008.55
2018-11-29T04:21:28.480Z,1008.52
2018-11-29T04:22:28.541Z,1008.50
2018-11-29T04:23:28.593Z,1008.44
2018-11-29T04:24:28.651Z,1008.43
2018-11-29T04:25:28.709Z,1008.40
2018-11-29T04:26:28.763Z,1008.37
2018-11-29T04:27:28.818Z,1008.38
2018-11-29T04:28:28.875Z,1008.41
2018-11-29T04:29:28.930Z,1008.41
2018-11-29T04:30:28.988Z,1008.43
2018-11-29T04:31:29.044Z,1008.42
2018-11-29T04:32:29.099Z,1008.40
2018-11-29T04:33:29.155Z,1008.41
2018-11-29T04:34:29.213Z,1008.40
2018-11-29T04:35:29.268Z,1008.41
2018-11-29T04:36:29.326Z,1008.41
2018-11-29T04:37:29.382Z,1008.37
2018-11-29T04:38:29.439Z,1008.34
2018-11-29T04:39:29.493Z,1008.35
2018-11-29T04:40:29.549Z,1008.36
2018-11-29T04:41:29.606Z,1008.38
2018-11-29T04:42:29.662Z,1008.37
2018-11-29T04:43:29.718Z,1008.39
2018-11-29T04:44:29.777Z,1008.38
2018-11-29T04:45:29.829Z,1008.36
2018-11-29T04:46:29.886Z,1008.33
2018-11-29T04:47:29.943Z,1008.28
2018-11-29T04:48:29.998Z,1008.33
2018-11-29T04:49:30.054Z,1008.28
2018-11-29T04:50:30.110Z,1008.25
2018-11-29T04:51:30.167Z,1008.27
2018-11-29T04:52:30.223Z,1008.23
2018-11-29T04:53:30.278Z,1008.25
2018-11-29T04:54:30.345Z,1008.25
2018-11-29T04:55:30.389Z,1008.27
2018-11-29T04:56:30.447Z,1008.21
2018-11-29T04:57:30.501Z,1008.23
2018-11-29T04:58:30.560Z,1008.24
2018-11-29T04:59:30.614Z,1008.24
2018-11-29T05:00:30.671Z,1008.26
2018-11-29T05:01:30.756Z,1008.23
2018-11-29T05:02:30.782Z,1008.21
2018-11-29T05:03:30.837Z,1008.17
2018-11-29T05:04:31.542Z,1008.17
2018-11-29T05:05:30.951Z,1008.17
2018-11-29T05:06:31.009Z,1008.19
2018-11-29T05:07:31.062Z,1008.15
2018-11-29T05:08:31.116Z,1008.17
2018-11-29T05:09:31.172Z,1008.12
2018-11-29T05:10:31.228Z,1008.14
2018-11-29T05:11:31.285Z,1008.12
2018-11-29T05:12:31.345Z,1008.15
2018-11-29T05:13:31.394Z,1008.12
2018-11-29T05:14:31.451Z,1008.11
2018-11-29T05:15:31.508Z,1008.10
2018-11-29T05:16:31.564Z,1008.09
2018-11-29T05:17:31.618Z,1008.08
2018-11-29T05:18:32.436Z,1008.10
2018-11-29T05:19:31.731Z,1008.12
2018-11-29T05:20:31.786Z,1008.06
2018-11-29T05:21:31.843Z,1008.11
2018-11-29T05:22:31.898Z,1008.09
2018-11-29T05:23:31.956Z,1008.09
2018-11-29T05:24:32.014Z,1008.14
2018-11-29T05:25:32.070Z,1008.10
2018-11-29T05:26:32.123Z,1008.13
2018-11-29T05:27:32.179Z,1008.13
2018-11-29T05:28:32.235Z,1008.14
2018-11-29T05:29:32.289Z,1008.14
2018-11-29T05:30:32.347Z,1008.10
2018-11-29T05:31:32.404Z,1008.13
2018-11-29T05:32:32.461Z,1008.12
2018-11-29T05:33:32.514Z,1008.10
2018-11-29T05:34:32.573Z,1008.13
2018-11-29T05:35:32.627Z,1008.12
2018-11-29T05:36:32.707Z,1008.11
2018-11-29T05:37:32.738Z,1008.07
2018-11-29T05:38:32.814Z,1008.07
2018-11-29T05:39:32.850Z,1008.04
2018-11-29T05:40:32.923Z,1008.06
2018-11-29T05:41:32.961Z,1008.09
2018-11-29T05:42:33.037Z,1008.07
2018-11-29T05:43:33.074Z,1008.03
2018-11-29T05:44:33.130Z,1008.03
2018-11-29T05:45:33.184Z,1008.01
2018-11-29T05:46:33.243Z,1008.00
2018-11-29T05:47:33.299Z,1008.01
2018-11-29T05:48:33.354Z,1008.03
2018-11-29T05:49:33.497Z,1007.99
2018-11-29T05:50:33.467Z,1007.98
2018-11-29T05:51:33.885Z,1007.99
2018-11-29T05:52:33.578Z,1007.98
2018-11-29T05:53:33.634Z,1007.96
2018-11-29T05:54:33.689Z,1007.93
2018-11-29T05:55:33.744Z,1007.93
2018-11-29T05:56:33.800Z,1007.95
2018-11-29T05:57:33.859Z,1007.95
2018-11-29T05:58:33.912Z,1007.94
2018-11-29T05:59:33.970Z,1007.98
2018-11-29T06:00:34.025Z,1007.99
2018-11-29T06:01:34.083Z,1007.99
2018-11-29T06:02:34.136Z,1007.99
2018-11-29T06:03:34.193Z,1007.97
2018-11-29T06:04:34.248Z,1007.97
2018-11-29T06:05:34.303Z,1007.97
2018-11-29T06:06:34.959Z,1007.93
2018-11-29T06:07:34.419Z,1007.96
2018-11-29T06:08:34.473Z,1007.97
2018-11-29T06:09:34.530Z,1007.93
2018-11-29T06:10:34.583Z,1007.92
2018-11-29T06:11:34.640Z,1007.94
2018-11-29T06:12:34.698Z,1007.98
2018-11-29T06:13:34.751Z,1008.01
2018-11-29T06:14:34.806Z,1008.02
2018-11-29T06:15:34.863Z,1008.00
2018-11-29T06:16:34.918Z,1008.03
2018-11-29T06:17:34.973Z,1008.01
2018-11-29T06:18:35.030Z,1007.98
2018-11-29T06:19:35.085Z,1007.95
2018-11-29T06:20:35.142Z,1007.95
2018-11-29T06:21:35.196Z,1007.96
2018-11-29T06:22:35.252Z,1007.96
2018-11-29T06:23:35.309Z,1007.93
2018-11-29T06:24:35.372Z,1007.93
2018-11-29T06:25:35.420Z,1007.92
2018-11-29T06:26:35.477Z,1007.91
2018-11-29T06:27:35.532Z,1007.91
2018-11-29T06:28:35.589Z,1007.87
2018-11-29T06:29:35.643Z,1007.87
2018-11-29T06:30:35.699Z,1007.83
2018-11-29T06:31:35.755Z,1007.79
2018-11-29T06:32:35.813Z,1007.82
2018-11-29T06:33:35.866Z,1007.83
2018-11-29T06:34:35.925Z,1007.81
2018-11-29T06:35:35.978Z,1007.80
2018-11-29T06:36:36.035Z,1007.81
2018-11-29T06:37:36.091Z,1007.83
2018-11-29T06:38:36.147Z,1007.79
2018-11-29T06:39:36.203Z,1007.78
2018-11-29T06:40:36.258Z,1007.77
2018-11-29T06:41:36.314Z,1007.77
2018-11-29T06:42:36.369Z,1007.79
2018-11-29T06:43:36.425Z,1007.75
2018-11-29T06:44:36.481Z,1007.78
2018-11-29T06:45:36.538Z,1007.74
2018-11-29T06:46:36.594Z,1007.77
2018-11-29T06:47:36.652Z,1007.76
2018-11-29T06:48:36.707Z,1007.74
2018-11-29T06:49:36.760Z,1007.71
2018-11-29T06:50:36.817Z,1007.77
2018-11-29T06:51:36.872Z,1007.73
2018-11-29T06:52:36.929Z,1007.75
2018-11-29T06:53:36.983Z,1007.74
2018-11-29T06:54:37.041Z,1007.68
2018-11-29T06:55:37.095Z,1007.68
2018-11-29T06:56:37.152Z,1007.66
2018-11-29T06:57:37.733Z,1007.59
2018-11-29T06:58:37.263Z,1007.61
2018-11-29T06:59:37.322Z,1007.61
2018-11-29T07:00:37.677Z,1007.59
2018-11-29T07:01:37.854Z,1007.61
2018-11-29T07:02:37.485Z,1007.62
2018-11-29T07:03:37.540Z,1007.61
2018-11-29T07:04:37.933Z,1007.61
2018-11-29T07:05:37.652Z,1007.61
2018-11-29T07:06:37.707Z,1007.65
2018-11-29T07:07:37.762Z,1007.63
2018-11-29T07:08:37.821Z,1007.62
2018-11-29T07:09:37.872Z,1007.62
2018-11-29T07:10:37.928Z,1007.61
2018-11-29T07:11:37.985Z,1007.67
2018-11-29T07:12:38.041Z,1007.67
2018-11-29T07:13:38.095Z,1007.61
2018-11-29T07:14:38.150Z,1007.64
2018-11-29T07:15:38.206Z,1007.66
2018-11-29T07:16:38.262Z,1007.65
2018-11-29T07:17:38.317Z,1007.60
2018-11-29T07:18:38.373Z,1007.61
2018-11-29T07:19:38.430Z,1007.58
2018-11-29T07:20:38.484Z,1007.59
2018-11-29T07:21:38.538Z,1007.56
2018-11-29T07:22:38.594Z,1007.55
2018-11-29T07:23:38.649Z,1007.47
2018-11-29T07:24:38.704Z,1007.47
2018-11-29T07:25:38.759Z,1007.47
2018-11-29T07:26:38.817Z,1007.45
2018-11-29T07:27:38.872Z,1007.51
2018-11-29T07:28:38.933Z,1007.54
2018-11-29T07:29:38.981Z,1007.62
2018-11-29T07:30:39.039Z,1007.59
2018-11-29T07:31:39.092Z,1007.56
2018-11-29T07:32:39.149Z,1007.58
2018-11-29T07:33:39.203Z,1007.62
2018-11-29T07:34:39.260Z,1007.58
2018-11-29T07:35:39.315Z,1007.56
2018-11-29T07:36:39.371Z,1007.52
2018-11-29T07:37:39.425Z,1007.58
2018-11-29T07:38:39.480Z,1007.61
2018-11-29T07:39:39.535Z,1007.58
2018-11-29T07:40:39.592Z,1007.59
2018-11-29T07:41:39.646Z,1007.58
2018-11-29T07:42:39.703Z,1007.58
2018-11-29T07:43:39.757Z,1007.57
2018-11-29T07:44:39.814Z,1007.53
2018-11-29T07:45:39.868Z,1007.53
2018-11-29T07:46:39.923Z,1007.58
2018-11-29T07:47:39.981Z,1007.52
2018-11-29T07:48:40.035Z,1007.54
2018-11-29T07:49:40.089Z,1007.56
2018-11-29T07:50:40.146Z,1007.55
2018-11-29T07:51:40.201Z,1007.54
2018-11-29T07:52:40.257Z,1007.53
2018-11-29T07:53:40.313Z,1007.49
2018-11-29T07:54:40.367Z,1007.49
2018-11-29T07:55:40.423Z,1007.46
2018-11-29T07:56:40.479Z,1007.42
2018-11-29T07:57:40.534Z,1007.39
2018-11-29T07:58:40.594Z,1007.38
2018-11-29T07:59:40.650Z,1007.38
2018-11-29T08:00:40.703Z,1007.41
2018-11-29T08:01:40.758Z,1007.39
2018-11-29T08:02:40.814Z,1007.45
2018-11-29T08:03:40.870Z,1007.45
2018-11-29T08:04:41.061Z,1007.44
2018-11-29T08:05:40.981Z,1007.47
2018-11-29T08:06:41.037Z,1007.51
2018-11-29T08:07:41.093Z,1007.47
2018-11-29T08:08:41.150Z,1007.46
2018-11-29T08:09:41.235Z,1007.48
2018-11-29T08:10:41.262Z,1007.48
2018-11-29T08:11:41.318Z,1007.47
2018-11-29T08:12:42.084Z,1007.51
2018-11-29T08:13:41.431Z,1007.50
2018-11-29T08:14:41.487Z,1007.49
2018-11-29T08:15:42.243Z,1007.48
2018-11-29T08:16:41.598Z,1007.52
2018-11-29T08:17:41.654Z,1007.51
2018-11-29T08:18:41.709Z,1007.52
2018-11-29T08:19:41.772Z,1007.55
2018-11-29T08:20:41.821Z,1007.53
2018-11-29T08:21:41.878Z,1007.47
2018-11-29T08:22:41.933Z,1007.49
2018-11-29T08:23:41.990Z,1007.49
2018-11-29T08:24:42.047Z,1007.48
2018-11-29T08:25:42.429Z,1007.50
2018-11-29T08:26:42.546Z,1007.47
2018-11-29T08:27:42.215Z,1007.50
2018-11-29T08:28:42.271Z,1007.53
2018-11-29T08:29:42.327Z,1007.56
2018-11-29T08:30:42.383Z,1007.52
2018-11-29T08:31:42.440Z,1007.53
2018-11-29T08:32:42.495Z,1007.57
2018-11-29T08:33:42.552Z,1007.55
2018-11-29T08:34:42.609Z,1007.54
2018-11-29T08:35:42.664Z,1007.56
2018-11-29T08:36:42.721Z,1007.58
2018-11-29T08:37:42.781Z,1007.60
2018-11-29T08:38:42.834Z,1007.61
2018-11-29T08:39:42.890Z,1007.62
2018-11-29T08:40:42.945Z,1007.65
2018-11-29T08:41:43.001Z,1007.65
2018-11-29T08:42:43.059Z,1007.63
2018-11-29T08:43:43.114Z,1007.65
2018-11-29T08:44:43.171Z,1007.66
2018-11-29T08:45:43.227Z,1007.64
2018-11-29T08:46:43.284Z,1007.60
2018-11-29T08:47:43.341Z,1007.61
2018-11-29T08:48:43.400Z,1007.61
2018-11-29T08:49:43.453Z,1007.59
2018-11-29T08:50:43.510Z,1007.60
2018-11-29T08:51:43.567Z,1007.61
2018-11-29T08:52:43.624Z,1007.60
2018-11-29T08:53:43.678Z,1007.55
2018-11-29T08:54:43.737Z,1007.58
2018-11-29T08:55:43.793Z,1007.59
2018-11-29T08:56:43.849Z,1007.57
2018-11-29T08:57:44.423Z,1007.57
2018-11-29T08:58:44.855Z,1007.63
2018-11-29T08:59:44.646Z,1007.66
2018-11-29T09:00:44.095Z,1007.68
2018-11-29T09:01:44.132Z,1007.64
2018-11-29T09:02:44.618Z,1007.61
2018-11-29T09:03:44.247Z,1007.59
2018-11-29T09:04:44.303Z,1007.60
2018-11-29T09:05:44.358Z,1007.55
2018-11-29T09:06:44.419Z,1007.56
2018-11-29T09:07:44.475Z,1007.56
2018-11-29T09:08:44.529Z,1007.61
2018-11-29T09:09:44.586Z,1007.60
2018-11-29T09:10:44.684Z,1007.65
2018-11-29T09:11:45.457Z,1007.65
2018-11-29T09:12:44.756Z,1007.69
2018-11-29T09:13:44.813Z,1007.71
2018-11-29T09:14:44.868Z,1007.71
2018-11-29T09:15:44.927Z,1007.73
2018-11-29T09:16:44.985Z,1007.70
2018-11-29T09:17:45.046Z,1007.71
2018-11-29T09:18:45.097Z,1007.68
2018-11-29T09:19:45.154Z,1007.65
2018-11-29T09:20:45.211Z,1007.66
2018-11-29T09:21:45.267Z,1007.67
2018-11-29T09:22:45.324Z,1007.61
2018-11-29T09:23:45.380Z,1007.60
2018-11-29T09:24:45.442Z,1007.61
2018-11-29T09:25:45.495Z,1007.62
2018-11-29T09:26:45.553Z,1007.65
2018-11-29T09:27:45.609Z,1007.63
2018-11-29T09:28:45.666Z,1007.64
2018-11-29T09:29:46.360Z,1007.65
2018-11-29T09:30:45.779Z,1007.62
2018-11-29T09:31:45.837Z,1007.61
2018-11-29T09:32:45.896Z,1007.55
2018-11-29T09:33:45.951Z,1007.57
2018-11-29T09:34:46.010Z,1007.57
2018-11-29T09:35:46.066Z,1007.60
2018-11-29T09:36:46.127Z,1007.58
2018-11-29T09:37:46.180Z,1007.63
2018-11-29T09:38:46.237Z,1007.60
2018-11-29T09:39:46.295Z,1007.62
2018-11-29T09:40:46.355Z,1007.65
2018-11-29T09:41:46.954Z,1007.60
2018-11-29T09:42:46.467Z,1007.58
2018-11-29T09:43:46.526Z,1007.55
2018-11-29T09:44:46.593Z,1007.53
2018-11-29T09:45:46.677Z,1007.56
2018-11-29T09:46:46.698Z,1007.55
2018-11-29T09:47:46.759Z,1007.58
2018-11-29T09:48:46.815Z,1007.60
2018-11-29T09:49:46.872Z,1007.59
2018-11-29T09:50:46.948Z,1007.63
2018-11-29T09:51:46.987Z,1007.61
2018-11-29T09:52:47.045Z,1007.63
2018-11-29T09:53:47.101Z,1007.61
2018-11-29T09:54:47.160Z,1007.62
2018-11-29T09:55:47.218Z,1007.61
2018-11-29T09:56:47.277Z,1007.61
2018-11-29T09:57:47.335Z,1007.64
2018-11-29T09:58:47.410Z,1007.64
2018-11-29T09:59:47.449Z,1007.63
2018-11-29T10:00:47.506Z,1007.64
2018-11-29T10:01:47.567Z,1007.63
2018-11-29T10:02:47.625Z,1007.61
2018-11-29T10:03:47.681Z,1007.63
2018-11-29T10:04:47.741Z,1007.61
2018-11-29T10:05:47.807Z,1007.61
2018-11-29T10:06:47.854Z,1007.63
2018-11-29T10:07:47.912Z,1007.62
2018-11-29T10:08:47.969Z,1007.60
2018-11-29T10:09:48.027Z,1007.57
2018-11-29T10:10:48.084Z,1007.54
2018-11-29T10:11:48.145Z,1007.55
2018-11-29T10:12:48.202Z,1007.52
2018-11-29T10:13:48.258Z,1007.53
2018-11-29T10:14:48.317Z,1007.50
2018-11-29T10:15:48.375Z,1007.49
2018-11-29T10:16:48.433Z,1007.51
2018-11-29T10:17:48.724Z,1007.48
2018-11-29T10:18:48.551Z,1007.48
2018-11-29T10:19:48.606Z,1007.41
2018-11-29T10:20:48.665Z,1007.48
2018-11-29T10:21:48.726Z,1007.41
2018-11-29T10:22:48.792Z,1007.40
2018-11-29T10:23:49.044Z,1007.37
2018-11-29T10:24:48.900Z,1007.37
2018-11-29T10:25:48.956Z,1007.34
2018-11-29T10:26:49.014Z,1007.36
2018-11-29T10:27:49.072Z,1007.38
2018-11-29T10:28:49.761Z,1007.32
2018-11-29T10:29:49.187Z,1007.33
2018-11-29T10:30:49.246Z,1007.37
2018-11-29T10:31:49.305Z,1007.37
2018-11-29T10:32:49.363Z,1007.32
2018-11-29T10:33:49.420Z,1007.30
2018-11-29T10:34:49.479Z,1007.32
2018-11-29T10:35:49.545Z,1007.30
2018-11-29T10:36:49.594Z,1007.26
2018-11-29T10:37:49.653Z,1007.22
2018-11-29T10:38:49.711Z,1007.21
2018-11-29T10:39:49.770Z,1007.16
2018-11-29T10:40:49.827Z,1007.10
2018-11-29T10:41:49.885Z,1007.07
2018-11-29T10:42:50.541Z,1007.05
2018-11-29T10:43:50.001Z,1007.04
2018-11-29T10:44:50.066Z,1007.03
2018-11-29T10:45:50.117Z,1006.96
2018-11-29T10:46:50.175Z,1006.94
2018-11-29T10:47:52.456Z,1006.94
2018-11-29T10:48:50.291Z,1006.87
2018-11-29T10:49:50.350Z,1006.84
2018-11-29T10:50:50.407Z,1006.82
2018-11-29T10:51:50.466Z,1006.73
2018-11-29T10:52:50.523Z,1006.71
2018-11-29T10:53:50.967Z,1006.68
2018-11-29T10:54:50.640Z,1006.64
2018-11-29T10:55:50.699Z,1006.62
2018-11-29T10:56:51.319Z,1006.59
2018-11-29T10:57:50.813Z,1006.60
2018-11-29T10:58:50.873Z,1006.52
2018-11-29T10:59:50.931Z,1006.53
2018-11-29T11:00:50.989Z,1006.52
2018-11-29T11:01:51.046Z,1006.52
2018-11-29T11:02:51.106Z,1006.49
2018-11-29T11:03:51.163Z,1006.45
2018-11-29T11:04:51.221Z,1006.44
2018-11-29T11:05:51.284Z,1006.37
2018-11-29T11:06:51.337Z,1006.29
2018-11-29T11:07:51.395Z,1006.21
2018-11-29T11:08:51.452Z,1006.08
2018-11-29T11:09:51.510Z,1006.05
2018-11-29T11:10:51.568Z,1006.01
2018-11-29T11:11:51.627Z,1005.98
2018-11-29T11:12:51.686Z,1006.07
2018-11-29T11:13:51.742Z,1006.18
2018-11-29T11:14:51.800Z,1006.38
2018-11-29T11:15:51.862Z,1006.38
2018-11-29T11:16:51.915Z,1006.22
2018-11-29T11:17:51.972Z,1006.06
2018-11-29T11:18:52.031Z,1005.99
2018-11-29T11:19:52.090Z,1006.13
2018-11-29T11:20:52.148Z,1006.46
2018-11-29T11:21:52.203Z,1006.61
2018-11-29T11:22:52.260Z,1006.58
2018-11-29T11:23:52.319Z,1006.59
2018-11-29T11:24:52.391Z,1006.68
2018-11-29T11:25:52.436Z,1006.78
2018-11-29T11:26:52.490Z,1006.60
2018-11-29T11:27:52.550Z,1006.48
2018-11-29T11:28:52.604Z,1006.39
2018-11-29T11:29:52.662Z,1006.43
2018-11-29T11:30:52.718Z,1006.45
2018-11-29T11:31:52.777Z,1006.53
2018-11-29T11:32:52.838Z,1006.45
2018-11-29T11:33:52.926Z,1006.40
2018-11-29T11:34:52.948Z,1006.40
2018-11-29T11:35:53.004Z,1006.50
2018-11-29T11:36:53.061Z,1006.47
2018-11-29T11:37:53.119Z,1006.50
2018-11-29T11:38:53.175Z,1006.50
2018-11-29T11:39:53.246Z,1006.47
2018-11-29T11:40:53.289Z,1006.47
2018-11-29T11:41:53.346Z,1006.39
2018-11-29T11:42:53.406Z,1006.38
2018-11-29T11:43:53.461Z,1006.47
2018-11-29T11:44:53.518Z,1006.44
2018-11-29T11:45:53.575Z,1006.36
2018-11-29T11:46:53.631Z,1006.30
2018-11-29T11:47:53.689Z,1006.31
2018-11-29T11:48:53.746Z,1006.39
2018-11-29T11:49:53.803Z,1006.35
2018-11-29T11:50:53.903Z,1006.10
2018-11-29T11:51:53.919Z,1006.07
2018-11-29T11:52:53.975Z,1006.20
2018-11-29T11:53:54.048Z,1006.17
2018-11-29T11:54:54.087Z,1006.15
2018-11-29T11:55:54.322Z,1006.20
2018-11-29T11:56:54.204Z,1006.28
2018-11-29T11:57:54.261Z,1006.21
2018-11-29T11:58:54.317Z,1006.22
2018-11-29T11:59:54.376Z,1006.16
2018-11-29T12:00:54.432Z,1006.19
2018-11-29T12:01:54.487Z,1006.19
2018-11-29T12:02:54.546Z,1006.19
2018-11-29T12:03:54.601Z,1006.14
2018-11-29T12:04:54.659Z,1006.10
2018-11-29T12:05:54.715Z,1006.03